WIDD/BTH METAR and TAF weather

Enter ICAO airport designator
Station Type Date Time Source
WIDD METAR 2019/04/19 08:00 UTC NOAA

WIDD 190800Z 05007KT 9999 FEW014 FEW015CB 33/24 Q1007 NOSIG RMK CB TO N AND S


Station Type Date Time Source
WIDD Decoded METAR 2019/04/19 08:00 UTC NOAA

Station name not available
Apr 19, 2019 - 04:00 AM EDT / 2019.04.19 0800 UTC
Wind: from the NE (050 degrees) at 8 MPH (7 KT):0
Visibility: greater than 7 mile(s):0
Sky conditions: mostly clear
Weather: Cumulonimbus clouds observed
Temperature: 91 F (33 C)
Heat index: 101.5 F (38.6 C):1
Dew Point: 75 F (24 C)
Relative Humidity: 59%
Pressure (altimeter): 29.74 in. Hg (1007 hPa)
ob: WIDD 190800Z 05007KT 9999 FEW014 FEW015CB 33/24 Q1007 NOSIG RMK CB TO N AND S
cycle: 8

Station Type Date Time Source
WIDD TAF 2019/04/19 06:00 UTC NOAA

TAF WIDD 190500Z 1906/2006 05008KT 9999 FEW014
BECMG 1913/1915 06003KT

Example: see airport list